< Cyclone 200606 2006 Season Cyclone 200610 >
Cyclone 200608 (JIM)
General InformationTrack Information on Google MapsDetailed Wind InformationList of All Images || ResourceGoogle EarthGE AnimationAtom FeedGeoJSON
Detalied Best Track (Time Zone = UTC)
Year Month Day Hour Lat. Long. Pressure (hPa) Wind (kt) Class Image Chart
2006 1 25 00 -17.6 146.7 1007 15 2 Image --
2006 1 25 06 -17.6 146.8 1004 15 2 Image --
2006 1 25 12 -17.5 147.0 1005 15 2 Image --
2006 1 25 18 -17.5 147.0 1003 15 2 Image --
2006 1 26 00 -17.6 147.0 1004 20 2 Image --
2006 1 26 06 -17.7 147.0 1002 20 2 Image --
2006 1 26 12 -17.8 147.1 1002 25 2 Image --
2006 1 26 18 -17.9 147.2 1000 27 2 Image --
2006 1 27 00 -18.1 147.4 997 30 2 Image --
2006 1 27 06 -17.8 148.2 996 30 2 Image --
2006 1 27 12 -17.6 148.6 995 33 2 Image --
2006 1 27 18 -17.5 148.9 990 35 3 Image --
2006 1 28 00 -17.2 149.5 990 40 3 Image --
2006 1 28 06 -17.3 151.2 985 50 4 Image --
2006 1 28 12 -16.6 152.6 985 50 4 Image --
2006 1 28 18 -16.5 153.5 984 50 4 Image --
2006 1 29 00 -16.4 154.4 982 52 4 Image --
2006 1 29 06 -16.2 155.5 975 60 4 Image --
2006 1 29 12 -16.0 156.7 975 60 4 Image --
2006 1 29 18 -15.9 158.7 970 65 5 Image --
2006 1 30 00 -16.5 160.3 970 65 5 Image --
< Cyclone 200606 2006 Season Cyclone 200610 >

Help